createdAt,value
2018-10-16T00:00:31.334Z,932.39
2018-10-16T00:01:31.352Z,932.38
2018-10-16T00:02:31.364Z,932.46
2018-10-16T00:03:31.383Z,932.42
2018-10-16T00:04:31.694Z,932.42
2018-10-16T00:05:31.614Z,932.45
2018-10-16T00:06:31.413Z,932.42
2018-10-16T00:07:31.639Z,932.42
2018-10-16T00:08:31.452Z,932.44
2018-10-16T00:09:31.467Z,932.40
2018-10-16T00:10:31.581Z,932.46
2018-10-16T00:11:31.479Z,932.43
2018-10-16T00:12:31.491Z,932.50
2018-10-16T00:13:31.524Z,932.48
2018-10-16T00:14:31.533Z,932.49
2018-10-16T00:15:31.632Z,932.41
2018-10-16T00:16:31.558Z,932.40
2018-10-16T00:17:31.577Z,932.41
2018-10-16T00:18:31.591Z,932.43
2018-10-16T00:19:31.590Z,932.42
2018-10-16T00:20:31.715Z,932.51
2018-10-16T00:21:31.633Z,932.56
2018-10-16T00:22:31.645Z,932.55
2018-10-16T00:23:31.656Z,932.62
2018-10-16T00:24:31.674Z,932.61
2018-10-16T00:25:31.785Z,932.61
2018-10-16T00:26:31.702Z,932.65
2018-10-16T00:27:31.710Z,932.64
2018-10-16T00:28:31.729Z,932.63
2018-10-16T00:29:31.730Z,932.58
2018-10-16T00:30:32.008Z,932.54
2018-10-16T00:31:31.772Z,932.55
2018-10-16T00:32:31.813Z,932.47
2018-10-16T00:33:31.796Z,932.53
2018-10-16T00:34:31.812Z,932.49
2018-10-16T00:35:31.926Z,932.59
2018-10-16T00:36:31.842Z,932.59
2018-10-16T00:37:31.856Z,932.64
2018-10-16T00:38:31.869Z,932.66
2018-10-16T00:39:31.865Z,932.68
2018-10-16T00:40:31.993Z,932.72
2018-10-16T00:41:31.906Z,932.74
2018-10-16T00:42:31.921Z,932.77
2018-10-16T00:43:31.935Z,932.74
2018-10-16T00:44:31.938Z,932.74
2018-10-16T00:45:32.048Z,932.73
2018-10-16T00:46:31.975Z,932.73
2018-10-16T00:47:31.988Z,932.74
2018-10-16T00:48:32.004Z,932.71
2018-10-16T00:49:32.024Z,932.74
2018-10-16T00:50:32.287Z,932.74
2018-10-16T00:51:32.041Z,932.75
2018-10-16T00:52:32.042Z,932.83
2018-10-16T00:53:32.070Z,932.85
2018-10-16T00:54:32.074Z,932.90
2018-10-16T00:55:32.203Z,932.86
2018-10-16T00:56:32.099Z,932.87
2018-10-16T00:57:32.127Z,932.87
2018-10-16T00:58:32.140Z,932.83
2018-10-16T00:59:32.156Z,932.79
2018-10-16T01:00:32.370Z,932.80
2018-10-16T01:01:32.187Z,932.78
2018-10-16T01:02:32.197Z,932.75
2018-10-16T01:03:32.413Z,932.72
2018-10-16T01:04:32.231Z,932.79
2018-10-16T01:05:32.339Z,932.76
2018-10-16T01:06:32.236Z,932.77
2018-10-16T01:07:32.269Z,932.78
2018-10-16T01:08:32.278Z,932.81
2018-10-16T01:09:32.293Z,932.87
2018-10-16T01:10:32.409Z,932.88
2018-10-16T01:11:32.307Z,932.86
2018-10-16T01:12:32.338Z,932.89
2018-10-16T01:13:32.351Z,932.83
2018-10-16T01:14:32.363Z,932.83
2018-10-16T01:15:32.475Z,932.85
2018-10-16T01:16:32.595Z,932.77
2018-10-16T01:17:32.407Z,932.82
2018-10-16T01:18:32.417Z,932.85
2018-10-16T01:19:32.430Z,932.80
2018-10-16T01:20:32.442Z,932.82
2018-10-16T01:21:32.712Z,932.80
2018-10-16T01:22:32.478Z,932.77
2018-10-16T01:23:32.491Z,932.77
2018-10-16T01:24:32.549Z,932.79
2018-10-16T01:25:32.514Z,932.74
2018-10-16T01:26:32.531Z,932.70
2018-10-16T01:27:32.643Z,932.75
2018-10-16T01:28:32.553Z,932.70
2018-10-16T01:29:32.555Z,932.66
2018-10-16T01:30:32.583Z,932.64
2018-10-16T01:31:32.596Z,932.64
2018-10-16T01:32:32.863Z,932.71
2018-10-16T01:33:32.629Z,932.73
2018-10-16T01:34:32.644Z,932.77
2018-10-16T01:35:32.659Z,932.79
2018-10-16T01:36:32.671Z,932.79
2018-10-16T01:37:32.784Z,932.80
2018-10-16T01:38:32.698Z,932.76
2018-10-16T01:39:32.704Z,932.79
2018-10-16T01:40:32.723Z,932.78
2018-10-16T01:41:32.734Z,932.78
2018-10-16T01:42:33.000Z,932.77
2018-10-16T01:43:32.765Z,932.74
2018-10-16T01:44:32.781Z,932.71
2018-10-16T01:45:32.791Z,932.68
2018-10-16T01:46:32.806Z,932.65
2018-10-16T01:47:32.921Z,932.60
2018-10-16T01:48:32.832Z,932.60
2018-10-16T01:49:32.846Z,932.58
2018-10-16T01:50:32.849Z,932.56
2018-10-16T01:51:32.882Z,932.58
2018-10-16T01:52:32.988Z,932.62
2018-10-16T01:53:32.907Z,932.64
2018-10-16T01:54:32.918Z,932.61
2018-10-16T01:55:32.935Z,932.60
2018-10-16T01:56:32.948Z,932.65
2018-10-16T01:57:33.058Z,932.63
2018-10-16T01:58:32.977Z,932.61
2018-10-16T01:59:32.990Z,932.60
2018-10-16T02:00:33.000Z,932.53
2018-10-16T02:01:33.016Z,932.51
2018-10-16T02:02:33.229Z,932.50
2018-10-16T02:03:33.030Z,932.45
2018-10-16T02:04:33.044Z,932.43
2018-10-16T02:05:33.075Z,932.42
2018-10-16T02:06:33.070Z,932.42
2018-10-16T02:07:33.200Z,932.44
2018-10-16T02:08:33.114Z,932.41
2018-10-16T02:09:33.125Z,932.43
2018-10-16T02:10:33.140Z,932.39
2018-10-16T02:11:33.155Z,932.40
2018-10-16T02:12:33.272Z,932.39
2018-10-16T02:13:33.184Z,932.37
2018-10-16T02:14:33.209Z,932.39
2018-10-16T02:15:33.209Z,932.41
2018-10-16T02:16:33.226Z,932.48
2018-10-16T02:17:33.339Z,932.51
2018-10-16T02:18:33.237Z,932.47
2018-10-16T02:19:33.265Z,932.52
2018-10-16T02:20:33.281Z,932.47
2018-10-16T02:21:33.299Z,932.44
2018-10-16T02:22:33.559Z,932.41
2018-10-16T02:23:33.325Z,932.40
2018-10-16T02:24:33.338Z,932.37
2018-10-16T02:25:33.337Z,932.39
2018-10-16T02:26:33.366Z,932.39
2018-10-16T02:27:33.475Z,932.38
2018-10-16T02:28:33.390Z,932.44
2018-10-16T02:29:33.407Z,932.38
2018-10-16T02:30:33.421Z,932.42
2018-10-16T02:31:33.420Z,932.44
2018-10-16T02:32:33.545Z,932.42
2018-10-16T02:33:33.459Z,932.38
2018-10-16T02:34:33.476Z,932.37
2018-10-16T02:35:33.490Z,932.35
2018-10-16T02:36:33.491Z,932.31
2018-10-16T02:37:33.618Z,932.27
2018-10-16T02:38:33.538Z,932.29
2018-10-16T02:39:33.550Z,932.28
2018-10-16T02:40:33.615Z,932.24
2018-10-16T02:41:33.564Z,932.26
2018-10-16T02:42:33.687Z,932.24
2018-10-16T02:43:33.600Z,932.21
2018-10-16T02:44:33.610Z,932.23
2018-10-16T02:45:33.629Z,932.18
2018-10-16T02:46:33.640Z,932.14
2018-10-16T02:47:33.904Z,932.18
2018-10-16T02:48:33.672Z,932.15
2018-10-16T02:49:33.699Z,932.15
2018-10-16T02:50:33.697Z,932.18
2018-10-16T02:51:33.708Z,932.23
2018-10-16T02:52:33.826Z,932.27
2018-10-16T02:53:33.741Z,932.25
2018-10-16T02:54:33.743Z,932.25
2018-10-16T02:55:33.766Z,932.26
2018-10-16T02:56:33.780Z,932.25
2018-10-16T02:57:33.891Z,932.22
2018-10-16T02:58:33.810Z,932.20
2018-10-16T02:59:33.823Z,932.23
2018-10-16T03:00:33.836Z,932.21
2018-10-16T03:01:33.849Z,932.18
2018-10-16T03:02:33.967Z,932.15
2018-10-16T03:03:33.861Z,932.13
2018-10-16T03:04:33.887Z,932.10
2018-10-16T03:05:33.899Z,932.11
2018-10-16T03:06:33.909Z,932.06
2018-10-16T03:07:34.030Z,932.07
2018-10-16T03:08:33.944Z,932.07
2018-10-16T03:09:33.963Z,932.03
2018-10-16T03:10:33.988Z,932.02
2018-10-16T03:11:33.991Z,932.02
2018-10-16T03:12:34.252Z,932.02
2018-10-16T03:13:34.016Z,932.04
2018-10-16T03:14:34.034Z,932.01
2018-10-16T03:15:34.044Z,932.01
2018-10-16T03:16:34.056Z,931.98
2018-10-16T03:17:34.319Z,931.98
2018-10-16T03:18:34.086Z,932.00
2018-10-16T03:19:34.083Z,932.00
2018-10-16T03:20:34.175Z,931.99
2018-10-16T03:21:34.129Z,931.99
2018-10-16T03:22:34.236Z,932.02
2018-10-16T03:23:34.153Z,932.06
2018-10-16T03:24:34.164Z,932.06
2018-10-16T03:25:34.181Z,932.09
2018-10-16T03:26:34.195Z,932.12
2018-10-16T03:27:34.310Z,932.18
2018-10-16T03:28:34.225Z,932.22
2018-10-16T03:29:34.223Z,932.22
2018-10-16T03:30:34.252Z,932.25
2018-10-16T03:31:34.261Z,932.24
2018-10-16T03:32:34.529Z,932.22
2018-10-16T03:33:34.285Z,932.28
2018-10-16T03:34:34.308Z,932.28
2018-10-16T03:35:34.316Z,932.27
2018-10-16T03:36:34.331Z,932.23
2018-10-16T03:37:34.601Z,932.22
2018-10-16T03:38:34.363Z,932.20
2018-10-16T03:39:34.372Z,932.16
2018-10-16T03:40:34.390Z,932.16
2018-10-16T03:41:34.402Z,932.17
2018-10-16T03:42:34.414Z,932.14
2018-10-16T03:43:34.533Z,932.17
2018-10-16T03:44:34.432Z,932.16
2018-10-16T03:45:34.461Z,932.12
2018-10-16T03:46:34.458Z,932.09
2018-10-16T03:47:34.502Z,932.08
2018-10-16T03:48:34.599Z,932.04
2018-10-16T03:49:34.514Z,932.01
2018-10-16T03:50:34.527Z,931.94
2018-10-16T03:51:34.542Z,931.92
2018-10-16T03:52:34.554Z,931.91
2018-10-16T03:53:34.672Z,931.91
2018-10-16T03:54:34.581Z,931.88
2018-10-16T03:55:34.594Z,931.86
2018-10-16T03:56:34.616Z,931.83
2018-10-16T03:57:34.624Z,931.84
2018-10-16T03:58:34.740Z,931.82
2018-10-16T03:59:34.652Z,931.78
2018-10-16T04:00:34.669Z,931.77
2018-10-16T04:01:34.681Z,931.77
2018-10-16T04:02:34.693Z,931.69
2018-10-16T04:03:34.809Z,931.66
2018-10-16T04:04:34.721Z,931.73
2018-10-16T04:05:34.737Z,931.73
2018-10-16T04:06:34.755Z,931.72
2018-10-16T04:07:34.757Z,931.73
2018-10-16T04:08:34.877Z,931.73
2018-10-16T04:09:34.791Z,931.76
2018-10-16T04:10:34.805Z,931.78
2018-10-16T04:11:34.816Z,931.77
2018-10-16T04:12:34.833Z,931.79
2018-10-16T04:13:34.949Z,931.78
2018-10-16T04:14:34.863Z,931.79
2018-10-16T04:15:34.873Z,931.78
2018-10-16T04:16:34.873Z,931.79
2018-10-16T04:17:34.902Z,931.80
2018-10-16T04:18:35.168Z,931.80
2018-10-16T04:19:34.917Z,931.83
2018-10-16T04:20:34.927Z,931.81
2018-10-16T04:21:34.959Z,931.79
2018-10-16T04:22:35.147Z,931.74
2018-10-16T04:23:35.083Z,931.75
2018-10-16T04:24:34.985Z,931.68
2018-10-16T04:25:35.014Z,931.62
2018-10-16T04:26:35.025Z,931.65
2018-10-16T04:27:35.038Z,931.67
2018-10-16T04:28:35.138Z,931.70
2018-10-16T04:29:35.056Z,931.73
2018-10-16T04:30:35.079Z,931.70
2018-10-16T04:31:35.094Z,931.72
2018-10-16T04:32:35.103Z,931.70
2018-10-16T04:33:35.223Z,931.67
2018-10-16T04:34:35.134Z,931.70
2018-10-16T04:35:35.151Z,931.58
2018-10-16T04:36:35.158Z,931.54
2018-10-16T04:37:35.176Z,931.51
2018-10-16T04:38:35.287Z,931.41
2018-10-16T04:39:35.185Z,931.40
2018-10-16T04:40:35.201Z,931.48
2018-10-16T04:41:35.283Z,931.46
2018-10-16T04:42:35.241Z,931.47
2018-10-16T04:43:35.385Z,931.42
2018-10-16T04:44:35.268Z,931.43
2018-10-16T04:45:35.283Z,931.41
2018-10-16T04:46:35.282Z,931.44
2018-10-16T04:47:35.327Z,931.44
2018-10-16T04:48:35.598Z,931.46
2018-10-16T04:49:35.339Z,931.39
2018-10-16T04:50:35.353Z,931.36
2018-10-16T04:51:35.351Z,931.31
2018-10-16T04:52:35.382Z,931.33
2018-10-16T04:53:35.396Z,931.31
2018-10-16T04:54:35.647Z,931.29
2018-10-16T04:55:35.423Z,931.29
2018-10-16T04:56:35.438Z,931.29
2018-10-16T04:57:35.449Z,931.31
2018-10-16T04:58:35.449Z,931.33
2018-10-16T04:59:35.461Z,931.33
2018-10-16T05:00:35.587Z,931.30
2018-10-16T05:01:35.502Z,931.31
2018-10-16T05:02:35.517Z,931.31
2018-10-16T05:03:35.520Z,931.28
2018-10-16T05:04:35.548Z,931.26
2018-10-16T05:05:35.660Z,931.27
2018-10-16T05:06:35.575Z,931.32
2018-10-16T05:07:35.589Z,931.31
2018-10-16T05:08:35.598Z,931.27
2018-10-16T05:09:35.612Z,931.24
2018-10-16T05:10:35.862Z,931.21
2018-10-16T05:11:35.637Z,931.13
2018-10-16T05:12:35.653Z,931.08
2018-10-16T05:13:35.667Z,931.11
2018-10-16T05:14:35.680Z,931.12
2018-10-16T05:15:35.943Z,931.13
2018-10-16T05:16:35.704Z,931.12
2018-10-16T05:17:35.722Z,931.09
2018-10-16T05:18:35.735Z,931.11
2018-10-16T05:19:35.749Z,931.07
2018-10-16T05:20:35.860Z,931.05
2018-10-16T05:21:35.772Z,931.08
2018-10-16T05:22:35.793Z,931.08
2018-10-16T05:23:35.804Z,931.14
2018-10-16T05:24:35.815Z,931.14
2018-10-16T05:25:35.924Z,931.16
2018-10-16T05:26:35.870Z,931.20
2018-10-16T05:27:35.917Z,931.19
2018-10-16T05:28:35.866Z,931.23
2018-10-16T05:29:35.882Z,931.22
2018-10-16T05:30:36.147Z,931.25
2018-10-16T05:31:36.169Z,931.28
2018-10-16T05:32:35.925Z,931.29
2018-10-16T05:33:35.923Z,931.24
2018-10-16T05:34:35.936Z,931.27
2018-10-16T05:35:36.063Z,931.22
2018-10-16T05:36:35.961Z,931.20
2018-10-16T05:37:35.991Z,931.22
2018-10-16T05:38:36.004Z,931.22
2018-10-16T05:39:35.999Z,931.23
2018-10-16T05:40:36.129Z,931.17
2018-10-16T05:41:36.042Z,931.14
2018-10-16T05:42:36.062Z,931.12
2018-10-16T05:43:36.076Z,931.11
2018-10-16T05:44:36.084Z,931.02
2018-10-16T05:45:36.201Z,931.01
2018-10-16T05:46:36.094Z,930.99
2018-10-16T05:47:36.124Z,930.96
2018-10-16T05:48:36.144Z,931.03
2018-10-16T05:49:36.139Z,931.01
2018-10-16T05:50:36.273Z,931.01
2018-10-16T05:51:36.182Z,931.01
2018-10-16T05:52:36.187Z,931.00
2018-10-16T05:53:36.205Z,930.97
2018-10-16T05:54:36.224Z,931.01
2018-10-16T05:55:36.331Z,931.03
2018-10-16T05:56:36.237Z,931.01
2018-10-16T05:57:36.261Z,931.01
2018-10-16T05:58:36.272Z,931.03
2018-10-16T05:59:36.287Z,931.04
2018-10-16T06:00:36.554Z,931.02
2018-10-16T06:01:36.317Z,931.00
2018-10-16T06:02:36.330Z,931.04
2018-10-16T06:03:36.343Z,931.05
2018-10-16T06:04:36.339Z,931.05
2018-10-16T06:05:36.426Z,931.02
2018-10-16T06:06:36.635Z,931.04
2018-10-16T06:07:36.393Z,931.02
2018-10-16T06:08:36.400Z,930.99
2018-10-16T06:09:36.413Z,930.95
2018-10-16T06:10:36.502Z,930.94
2018-10-16T06:11:36.450Z,930.89
2018-10-16T06:12:36.564Z,930.90
2018-10-16T06:13:36.500Z,930.88
2018-10-16T06:14:36.475Z,930.92
2018-10-16T06:15:36.513Z,930.95
2018-10-16T06:16:36.519Z,930.98
2018-10-16T06:17:36.617Z,930.98
2018-10-16T06:18:36.552Z,930.99
2018-10-16T06:19:36.556Z,931.00
2018-10-16T06:20:36.557Z,931.02
2018-10-16T06:21:36.575Z,931.04
2018-10-16T06:22:36.705Z,931.01
2018-10-16T06:23:36.612Z,931.00
2018-10-16T06:24:36.663Z,931.04
2018-10-16T06:25:36.640Z,931.04
2018-10-16T06:26:36.763Z,931.04
2018-10-16T06:27:36.775Z,931.04
2018-10-16T06:28:36.665Z,931.09
2018-10-16T06:29:36.696Z,931.07
2018-10-16T06:30:36.708Z,931.08
2018-10-16T06:31:36.722Z,931.10
2018-10-16T06:32:36.838Z,931.09
2018-10-16T06:33:36.737Z,931.10
2018-10-16T06:34:36.762Z,931.14
2018-10-16T06:35:36.776Z,931.17
2018-10-16T06:36:36.792Z,931.20
2018-10-16T06:37:36.903Z,931.21
2018-10-16T06:38:36.824Z,931.24
2018-10-16T06:39:36.836Z,931.28
2018-10-16T06:40:36.868Z,931.34
2018-10-16T06:41:36.922Z,931.36
2018-10-16T06:42:36.974Z,931.36
2018-10-16T06:43:36.892Z,931.37
2018-10-16T06:44:36.890Z,931.36
2018-10-16T06:45:36.903Z,931.39
2018-10-16T06:46:37.113Z,931.40
2018-10-16T06:47:37.146Z,931.44
2018-10-16T06:48:37.339Z,931.45
2018-10-16T06:49:36.968Z,931.44
2018-10-16T06:50:36.985Z,931.49
2018-10-16T06:51:36.995Z,931.52
2018-10-16T06:52:37.110Z,931.53
2018-10-16T06:53:37.021Z,931.50
2018-10-16T06:54:37.094Z,931.53
2018-10-16T06:55:37.053Z,931.57
2018-10-16T06:56:37.064Z,931.56
2018-10-16T06:57:37.329Z,931.54
2018-10-16T06:58:37.095Z,931.57
2018-10-16T06:59:37.107Z,931.56
2018-10-16T07:00:37.121Z,931.54
2018-10-16T07:01:37.140Z,931.54
2018-10-16T07:02:37.237Z,931.57
2018-10-16T07:03:37.164Z,931.51
2018-10-16T07:04:37.173Z,931.55
2018-10-16T07:05:37.190Z,931.54
2018-10-16T07:06:37.253Z,931.58
2018-10-16T07:07:37.465Z,931.63
2018-10-16T07:08:37.228Z,931.64
2018-10-16T07:09:37.241Z,931.63
2018-10-16T07:10:37.257Z,931.67
2018-10-16T07:11:37.268Z,931.69
2018-10-16T07:12:37.534Z,931.65
2018-10-16T07:13:37.297Z,931.59
2018-10-16T07:14:37.308Z,931.55
2018-10-16T07:15:37.321Z,931.45
2018-10-16T07:16:37.338Z,931.44
2018-10-16T07:17:37.350Z,931.43
2018-10-16T07:18:37.452Z,931.47
2018-10-16T07:19:37.379Z,931.47
2018-10-16T07:20:37.391Z,931.48
2018-10-16T07:21:37.404Z,931.54
2018-10-16T07:22:37.421Z,931.53
2018-10-16T07:23:37.810Z,931.57
2018-10-16T07:24:37.446Z,931.63
2018-10-16T07:25:37.448Z,931.67
2018-10-16T07:26:37.479Z,931.71
2018-10-16T07:27:37.485Z,931.78
2018-10-16T07:28:37.500Z,931.73
2018-10-16T07:29:37.769Z,931.77
2018-10-16T07:30:37.531Z,931.80
2018-10-16T07:31:37.541Z,931.77
2018-10-16T07:32:37.560Z,931.81
2018-10-16T07:33:37.571Z,931.76
2018-10-16T07:34:37.672Z,931.80
2018-10-16T07:35:37.596Z,931.83
2018-10-16T07:36:37.614Z,931.87
2018-10-16T07:37:37.670Z,931.94
2018-10-16T07:38:37.641Z,931.97
2018-10-16T07:39:37.751Z,932.00
2018-10-16T07:40:37.666Z,932.01
2018-10-16T07:41:37.680Z,931.97
2018-10-16T07:42:37.695Z,932.02
2018-10-16T07:43:37.708Z,932.03
2018-10-16T07:44:37.807Z,932.04
2018-10-16T07:45:37.733Z,932.08
2018-10-16T07:46:37.739Z,932.10
2018-10-16T07:47:37.764Z,932.15
2018-10-16T07:48:37.905Z,932.13
2018-10-16T07:49:37.874Z,932.14
2018-10-16T07:50:37.807Z,932.16
2018-10-16T07:51:37.816Z,932.10
2018-10-16T07:52:37.876Z,932.07
2018-10-16T07:53:37.831Z,932.06
2018-10-16T07:54:37.958Z,932.04
2018-10-16T07:55:37.872Z,932.07
2018-10-16T07:56:37.874Z,932.05
2018-10-16T07:57:37.899Z,932.07
2018-10-16T07:58:37.911Z,932.10
2018-10-16T07:59:38.025Z,932.11
2018-10-16T08:00:37.943Z,932.10
2018-10-16T08:01:37.960Z,932.05
2018-10-16T08:02:37.966Z,932.02
2018-10-16T08:03:37.984Z,931.92
2018-10-16T08:04:38.245Z,931.93
2018-10-16T08:05:38.012Z,931.94
2018-10-16T08:06:38.032Z,931.93
2018-10-16T08:07:38.034Z,931.90
2018-10-16T08:08:38.047Z,931.86
2018-10-16T08:09:38.162Z,931.85
2018-10-16T08:10:38.080Z,931.83
2018-10-16T08:11:38.077Z,931.82
2018-10-16T08:12:38.629Z,931.78
2018-10-16T08:13:38.120Z,931.82
2018-10-16T08:14:38.229Z,931.81
2018-10-16T08:15:38.143Z,931.82
2018-10-16T08:16:38.140Z,931.86
2018-10-16T08:17:38.173Z,931.90
2018-10-16T08:18:38.185Z,931.91
2018-10-16T08:19:38.452Z,931.96
2018-10-16T08:20:38.214Z,931.95
2018-10-16T08:21:38.224Z,931.96
2018-10-16T08:22:38.238Z,932.00
2018-10-16T08:23:38.255Z,931.99
2018-10-16T08:24:38.350Z,931.96
2018-10-16T08:25:38.280Z,931.99
2018-10-16T08:26:38.292Z,932.00
2018-10-16T08:27:38.341Z,931.94
2018-10-16T08:28:38.323Z,931.97
2018-10-16T08:29:38.435Z,931.98
2018-10-16T08:30:38.455Z,931.99
2018-10-16T08:31:38.355Z,931.98
2018-10-16T08:32:38.362Z,932.00
2018-10-16T08:33:38.387Z,932.00
2018-10-16T08:34:38.492Z,931.99
2018-10-16T08:35:38.429Z,932.01
2018-10-16T08:36:38.526Z,932.01
2018-10-16T08:37:38.442Z,932.00
2018-10-16T08:38:38.457Z,932.02
2018-10-16T08:39:38.475Z,932.02
2018-10-16T08:40:38.587Z,932.07
2018-10-16T08:41:38.498Z,932.03
2018-10-16T08:42:38.511Z,932.04
2018-10-16T08:43:38.520Z,932.07
2018-10-16T08:44:38.535Z,932.05
2018-10-16T08:45:38.650Z,932.05
2018-10-16T08:46:38.547Z,932.09
2018-10-16T08:47:38.655Z,932.06
2018-10-16T08:48:38.593Z,932.03
2018-10-16T08:49:38.594Z,932.02
2018-10-16T08:50:38.708Z,932.00
2018-10-16T08:51:38.632Z,931.98
2018-10-16T08:52:38.643Z,931.95
2018-10-16T08:53:38.656Z,932.01
2018-10-16T08:54:38.657Z,932.02
2018-10-16T08:55:38.937Z,932.17
2018-10-16T08:56:38.703Z,932.15
2018-10-16T08:57:38.712Z,932.25
2018-10-16T08:58:38.730Z,932.20
2018-10-16T08:59:38.740Z,932.24
2018-10-16T09:00:38.855Z,932.27
2018-10-16T09:01:38.770Z,932.27
2018-10-16T09:02:38.763Z,932.36
2018-10-16T09:03:38.796Z,932.37
2018-10-16T09:04:38.806Z,932.36
2018-10-16T09:05:38.919Z,932.36
2018-10-16T09:06:38.901Z,932.38
2018-10-16T09:07:38.851Z,932.41
2018-10-16T09:08:38.865Z,932.43
2018-10-16T09:09:38.876Z,932.40
2018-10-16T09:10:38.974Z,932.41
2018-10-16T09:11:38.902Z,932.42
2018-10-16T09:12:38.920Z,932.46
2018-10-16T09:13:38.915Z,932.47
2018-10-16T09:14:38.941Z,932.47
2018-10-16T09:15:39.193Z,932.46
2018-10-16T09:16:38.976Z,932.45
2018-10-16T09:17:38.985Z,932.45
2018-10-16T09:18:39.003Z,932.44
2018-10-16T09:19:39.015Z,932.42
2018-10-16T09:20:39.276Z,932.47
2018-10-16T09:21:39.044Z,932.41
2018-10-16T09:22:39.058Z,932.40
2018-10-16T09:23:39.056Z,932.40
2018-10-16T09:24:39.169Z,932.44
2018-10-16T09:25:39.182Z,932.49
2018-10-16T09:26:39.106Z,932.55
2018-10-16T09:27:39.124Z,932.57
2018-10-16T09:28:39.140Z,932.60
2018-10-16T09:29:39.157Z,932.63
2018-10-16T09:30:39.448Z,932.67
2018-10-16T09:31:39.178Z,932.72
2018-10-16T09:32:39.193Z,932.64
2018-10-16T09:33:39.209Z,932.66
2018-10-16T09:34:39.208Z,932.69
2018-10-16T09:35:39.340Z,932.71
2018-10-16T09:36:39.258Z,932.71
2018-10-16T09:37:39.336Z,932.74
2018-10-16T09:38:39.263Z,932.71
2018-10-16T09:39:39.297Z,932.69
2018-10-16T09:40:39.408Z,932.69
2018-10-16T09:41:39.323Z,932.71
2018-10-16T09:42:39.339Z,932.73
2018-10-16T09:43:39.332Z,932.74
2018-10-16T09:44:39.362Z,932.79
2018-10-16T09:45:39.478Z,932.81
2018-10-16T09:46:39.399Z,932.82
2018-10-16T09:47:39.400Z,932.79
2018-10-16T09:48:39.422Z,932.81
2018-10-16T09:49:39.512Z,932.83
2018-10-16T09:50:39.434Z,932.88
2018-10-16T09:51:39.568Z,932.87
2018-10-16T09:52:39.474Z,932.90
2018-10-16T09:53:39.492Z,932.90
2018-10-16T09:54:39.506Z,932.90
2018-10-16T09:55:39.515Z,932.94
2018-10-16T09:56:39.627Z,932.97
2018-10-16T09:57:39.546Z,933.03
2018-10-16T09:58:39.574Z,933.02
2018-10-16T09:59:39.574Z,933.08
2018-10-16T10:00:39.650Z,933.05
2018-10-16T10:01:39.705Z,933.04
2018-10-16T10:02:39.617Z,933.07
2018-10-16T10:03:39.629Z,933.05
2018-10-16T10:04:39.642Z,933.03
2018-10-16T10:05:39.660Z,933.05
2018-10-16T10:06:39.770Z,933.10
2018-10-16T10:07:39.666Z,933.16
2018-10-16T10:08:39.689Z,933.17
2018-10-16T10:09:39.700Z,933.14
2018-10-16T10:10:39.727Z,933.15
2018-10-16T10:11:39.840Z,933.14
2018-10-16T10:12:39.756Z,933.14
2018-10-16T10:13:39.755Z,933.14
2018-10-16T10:14:39.784Z,933.12
2018-10-16T10:15:39.800Z,933.11
2018-10-16T10:16:39.961Z,933.17
2018-10-16T10:17:39.809Z,933.19
2018-10-16T10:18:39.826Z,933.21
2018-10-16T10:19:39.852Z,933.23
2018-10-16T10:20:39.864Z,933.22
2018-10-16T10:21:39.978Z,933.30
2018-10-16T10:22:39.892Z,933.27
2018-10-16T10:23:39.906Z,933.28
2018-10-16T10:24:39.910Z,933.30
2018-10-16T10:25:39.918Z,933.32
2018-10-16T10:26:40.047Z,933.31
2018-10-16T10:27:39.964Z,933.35
2018-10-16T10:28:39.982Z,933.29
2018-10-16T10:29:40.034Z,933.27
2018-10-16T10:30:39.993Z,933.26
2018-10-16T10:31:40.121Z,933.28
2018-10-16T10:32:40.035Z,933.32
2018-10-16T10:33:40.048Z,933.29
2018-10-16T10:34:40.063Z,933.33
2018-10-16T10:35:40.218Z,933.34
2018-10-16T10:36:40.189Z,933.30
2018-10-16T10:37:40.108Z,933.28
2018-10-16T10:38:40.123Z,933.27
2018-10-16T10:39:40.119Z,933.28
2018-10-16T10:40:40.149Z,933.28
2018-10-16T10:41:40.297Z,933.23
2018-10-16T10:42:40.173Z,933.30
2018-10-16T10:43:40.186Z,933.29
2018-10-16T10:44:40.184Z,933.33
2018-10-16T10:45:40.206Z,933.30
2018-10-16T10:46:40.336Z,933.28
2018-10-16T10:47:40.243Z,933.23
2018-10-16T10:48:40.240Z,933.16
2018-10-16T10:49:40.279Z,933.18
2018-10-16T10:50:40.469Z,933.14
2018-10-16T10:51:40.648Z,933.14
2018-10-16T10:52:40.313Z,933.08
2018-10-16T10:53:40.335Z,933.13
2018-10-16T10:54:40.341Z,933.13
2018-10-16T10:55:40.357Z,933.13
2018-10-16T10:56:40.519Z,933.16
2018-10-16T10:57:40.385Z,933.19
2018-10-16T10:58:40.507Z,933.20
2018-10-16T10:59:40.414Z,933.20
2018-10-16T11:00:40.414Z,933.22
2018-10-16T11:01:40.533Z,933.22
2018-10-16T11:02:40.460Z,933.23
2018-10-16T11:03:40.632Z,933.22
2018-10-16T11:04:40.489Z,933.31
2018-10-16T11:05:40.506Z,933.30
2018-10-16T11:06:40.518Z,933.30
2018-10-16T11:07:40.529Z,933.32
2018-10-16T11:08:40.546Z,933.40
2018-10-16T11:09:40.542Z,933.44
2018-10-16T11:10:40.575Z,933.41
2018-10-16T11:11:40.674Z,933.44
2018-10-16T11:12:40.604Z,933.43
2018-10-16T11:13:40.616Z,933.40
2018-10-16T11:14:40.632Z,933.39
2018-10-16T11:15:40.632Z,933.39
2018-10-16T11:16:40.765Z,933.39
2018-10-16T11:17:40.675Z,933.45
2018-10-16T11:18:40.691Z,933.47
2018-10-16T11:19:40.708Z,933.47
2018-10-16T11:20:40.718Z,933.46
2018-10-16T11:21:40.835Z,933.47
2018-10-16T11:22:40.734Z,933.50
2018-10-16T11:23:40.763Z,933.50
2018-10-16T11:24:40.780Z,933.47
2018-10-16T11:25:40.784Z,933.46
2018-10-16T11:26:40.905Z,933.45
2018-10-16T11:27:40.823Z,933.46
2018-10-16T11:28:40.841Z,933.47
2018-10-16T11:29:40.854Z,933.46
2018-10-16T11:30:40.852Z,933.47
2018-10-16T11:31:40.872Z,933.54
2018-10-16T11:32:40.887Z,933.55
2018-10-16T11:33:40.959Z,933.63
2018-10-16T11:34:40.929Z,933.69
2018-10-16T11:35:40.941Z,933.69
2018-10-16T11:36:41.058Z,933.69
2018-10-16T11:37:40.959Z,933.66
2018-10-16T11:38:40.973Z,933.58
2018-10-16T11:39:40.998Z,933.59
2018-10-16T11:40:41.017Z,933.54
2018-10-16T11:41:41.290Z,933.62
2018-10-16T11:42:41.047Z,933.63
2018-10-16T11:43:41.050Z,933.67
2018-10-16T11:44:41.078Z,933.64
2018-10-16T11:45:41.196Z,933.65
2018-10-16T11:46:41.214Z,933.65
2018-10-16T11:47:41.123Z,933.63
2018-10-16T11:48:41.143Z,933.61
2018-10-16T11:49:41.153Z,933.60
2018-10-16T11:50:41.173Z,933.55
2018-10-16T11:51:41.173Z,933.59
2018-10-16T11:52:41.188Z,933.57
2018-10-16T11:53:41.215Z,933.53
2018-10-16T11:54:41.228Z,933.51
2018-10-16T11:55:41.245Z,933.46
2018-10-16T11:56:41.347Z,933.45
2018-10-16T11:57:41.271Z,933.46
2018-10-16T11:58:41.279Z,933.45
2018-10-16T11:59:41.316Z,933.45
2018-10-16T12:00:41.327Z,933.46
2018-10-16T12:01:41.335Z,933.47
2018-10-16T12:02:41.468Z,933.48
2018-10-16T12:03:41.369Z,933.53
2018-10-16T12:04:41.385Z,933.53
2018-10-16T12:05:41.397Z,933.55
2018-10-16T12:06:41.666Z,933.57
2018-10-16T12:07:41.433Z,933.57
2018-10-16T12:08:41.448Z,933.56
2018-10-16T12:09:41.462Z,933.59
2018-10-16T12:10:41.536Z,933.57
2018-10-16T12:11:41.496Z,933.58
2018-10-16T12:12:41.492Z,933.56
2018-10-16T12:13:41.522Z,933.52
2018-10-16T12:14:41.538Z,933.49
2018-10-16T12:15:41.553Z,933.45
2018-10-16T12:16:41.642Z,933.49
2018-10-16T12:17:41.583Z,933.51
2018-10-16T12:18:41.607Z,933.53
2018-10-16T12:19:41.709Z,933.51
2018-10-16T12:20:41.635Z,933.54
2018-10-16T12:21:41.754Z,933.55
2018-10-16T12:22:41.665Z,933.59
2018-10-16T12:23:41.879Z,933.58
2018-10-16T12:24:41.699Z,933.54
2018-10-16T12:25:41.718Z,933.55
2018-10-16T12:26:41.833Z,933.53
2018-10-16T12:27:41.741Z,933.52
2018-10-16T12:28:41.765Z,933.57